createdAt,value
2022-10-01T00:00:14.674Z,8.1
2022-10-01T00:01:14.973Z,8.1
2022-10-01T00:02:15.256Z,8.1
2022-10-01T00:03:15.600Z,8.1
2022-10-01T00:04:15.891Z,8.1
2022-10-01T00:05:16.051Z,8
2022-10-01T00:06:16.194Z,8
2022-10-01T00:07:16.344Z,8
2022-10-01T00:08:16.495Z,8
2022-10-01T00:09:16.661Z,8
2022-10-01T00:10:16.826Z,8
2022-10-01T00:11:16.976Z,8
2022-10-01T00:12:17.148Z,8
2022-10-01T00:13:17.312Z,8
2022-10-01T00:14:17.460Z,8
2022-10-01T00:15:17.616Z,8
2022-10-01T00:16:17.931Z,8
2022-10-01T00:17:18.213Z,8
2022-10-01T00:18:18.366Z,8
2022-10-01T00:19:18.512Z,8
2022-10-01T00:20:18.660Z,8
2022-10-01T00:21:18.821Z,8
2022-10-01T00:22:18.977Z,8
2022-10-01T00:23:19.128Z,8
2022-10-01T00:24:19.273Z,8
2022-10-01T00:25:19.430Z,7.9
2022-10-01T00:26:19.574Z,7.9
2022-10-01T00:27:19.723Z,7.9
2022-10-01T00:28:20.000Z,7.9
2022-10-01T00:29:20.290Z,7.9
2022-10-01T00:30:20.448Z,7.9
2022-10-01T00:31:20.693Z,7.9
2022-10-01T00:32:20.961Z,7.9
2022-10-01T00:33:21.113Z,7.9
2022-10-01T00:34:21.262Z,7.9
2022-10-01T00:35:21.408Z,7.9
2022-10-01T00:36:21.553Z,7.9
2022-10-01T00:37:21.699Z,7.9
2022-10-01T00:38:21.843Z,7.9
2022-10-01T00:39:21.993Z,7.9
2022-10-01T00:40:22.145Z,7.9
2022-10-01T00:41:22.304Z,7.9
2022-10-01T00:42:22.461Z,7.9
2022-10-01T00:43:22.615Z,7.9
2022-10-01T00:44:22.772Z,7.9
2022-10-01T00:45:22.924Z,7.8
2022-10-01T00:46:23.196Z,7.8
2022-10-01T00:47:23.431Z,7.8
2022-10-01T00:48:23.579Z,7.8
2022-10-01T00:49:23.755Z,7.8
2022-10-01T00:50:23.903Z,7.8
2022-10-01T00:51:24.056Z,7.8
2022-10-01T00:52:24.208Z,7.8
2022-10-01T00:53:24.357Z,7.8
2022-10-01T00:54:24.505Z,7.8
2022-10-01T00:55:24.659Z,7.8
2022-10-01T00:56:24.815Z,7.8
2022-10-01T00:57:24.962Z,7.8
2022-10-01T00:58:25.113Z,7.8
2022-10-01T00:59:25.266Z,7.8
2022-10-01T01:00:25.430Z,7.8
2022-10-01T01:01:25.722Z,7.8
2022-10-01T01:02:26.015Z,7.8
2022-10-01T01:03:26.243Z,7.8
2022-10-01T01:04:26.384Z,7.8
2022-10-01T01:05:26.537Z,7.7
2022-10-01T01:06:26.683Z,7.7
2022-10-01T01:07:26.829Z,7.7
2022-10-01T01:08:26.981Z,7.7
2022-10-01T01:09:27.141Z,7.7
2022-10-01T01:10:27.296Z,7.7
2022-10-01T01:11:27.451Z,7.7
2022-10-01T01:12:27.606Z,7.7
2022-10-01T01:13:27.779Z,7.7
2022-10-01T01:14:27.931Z,7.7
2022-10-01T01:15:28.081Z,7.6
2022-10-01T01:16:28.342Z,7.6
2022-10-01T01:17:28.509Z,7.6
2022-10-01T01:18:28.661Z,7.6
2022-10-01T01:19:28.809Z,7.6
2022-10-01T01:20:28.961Z,7.6
2022-10-01T01:21:29.103Z,7.6
2022-10-01T01:22:29.270Z,7.6
2022-10-01T01:23:29.425Z,7.6
2022-10-01T01:24:29.568Z,7.6
2022-10-01T01:25:29.726Z,7.6
2022-10-01T01:26:29.929Z,7.6
2022-10-01T01:27:30.075Z,7.6
2022-10-01T01:28:30.359Z,7.6
2022-10-01T01:29:30.516Z,7.6
2022-10-01T01:30:30.665Z,7.6
2022-10-01T01:31:31.241Z,7.6
2022-10-01T01:32:31.914Z,7.6
2022-10-01T01:33:32.081Z,7.6
2022-10-01T01:34:32.229Z,7.6
2022-10-01T01:35:32.404Z,7.6
2022-10-01T01:36:32.549Z,7.6
2022-10-01T01:37:32.695Z,7.6
2022-10-01T01:38:32.844Z,7.6
2022-10-01T01:39:32.997Z,7.6
2022-10-01T01:40:33.149Z,7.6
2022-10-01T01:41:33.866Z,7.6
2022-10-01T01:42:34.429Z,7.6
2022-10-01T01:43:34.583Z,7.6
2022-10-01T01:44:34.730Z,7.6
2022-10-01T01:45:34.975Z,7.5
2022-10-01T01:46:35.182Z,7.5
2022-10-01T01:47:35.340Z,7.5
2022-10-01T01:48:35.486Z,7.5
2022-10-01T01:49:35.636Z,7.5
2022-10-01T01:50:35.788Z,7.5
2022-10-01T01:51:36.631Z,7.5
2022-10-01T01:52:37.055Z,7.5
2022-10-01T01:53:37.202Z,7.5
2022-10-01T01:54:37.355Z,7.5
2022-10-01T01:55:37.508Z,7.5
2022-10-01T01:56:37.662Z,7.5
2022-10-01T01:57:37.816Z,7.5
2022-10-01T01:58:37.968Z,7.5
2022-10-01T01:59:38.117Z,7.5
2022-10-01T02:00:38.264Z,7.5
2022-10-01T02:01:39.186Z,7.5
2022-10-01T02:02:39.959Z,7.5
2022-10-01T02:03:40.194Z,7.5
2022-10-01T02:04:40.345Z,7.5
2022-10-01T02:05:40.494Z,7.5
2022-10-01T02:06:40.643Z,7.5
2022-10-01T02:07:40.796Z,7.5
2022-10-01T02:08:40.950Z,7.5
2022-10-01T02:09:41.111Z,7.5
2022-10-01T02:10:41.260Z,7.5
2022-10-01T02:11:41.404Z,7.5
2022-10-01T02:12:41.545Z,7.5
2022-10-01T02:13:41.702Z,7.5
2022-10-01T02:14:41.855Z,7.5
2022-10-01T02:15:42.246Z,7.4
2022-10-01T02:16:42.559Z,7.4
2022-10-01T02:17:42.710Z,7.4
2022-10-01T02:18:42.868Z,7.4
2022-10-01T02:19:43.016Z,7.4
2022-10-01T02:20:43.165Z,7.4
2022-10-01T02:21:43.316Z,7.4
2022-10-01T02:22:43.492Z,7.4
2022-10-01T02:23:43.643Z,7.4
2022-10-01T02:24:43.790Z,7.4
2022-10-01T02:25:43.941Z,7.4
2022-10-01T02:26:44.096Z,7.4
2022-10-01T02:27:44.322Z,7.4
2022-10-01T02:28:44.589Z,7.4
2022-10-01T02:29:44.736Z,7.4
2022-10-01T02:30:44.937Z,7.4
2022-10-01T02:31:45.267Z,7.4
2022-10-01T02:32:45.423Z,7.4
2022-10-01T02:33:45.570Z,7.4
2022-10-01T02:34:45.719Z,7.4
2022-10-01T02:35:45.875Z,7.4
2022-10-01T02:36:46.027Z,7.4
2022-10-01T02:37:46.178Z,7.4
2022-10-01T02:38:46.333Z,7.4
2022-10-01T02:39:46.476Z,7.4
2022-10-01T02:40:46.622Z,7.4
2022-10-01T02:41:46.772Z,7.4
2022-10-01T02:42:46.929Z,7.4
2022-10-01T02:43:47.085Z,7.4
2022-10-01T02:44:47.231Z,7.4
2022-10-01T02:45:47.522Z,7.4
2022-10-01T02:46:47.794Z,7.4
2022-10-01T02:47:47.945Z,7.4
2022-10-01T02:48:48.097Z,7.4
2022-10-01T02:49:48.245Z,7.4
2022-10-01T02:50:48.405Z,7.4
2022-10-01T02:51:48.552Z,7.4
2022-10-01T02:52:48.703Z,7.4
2022-10-01T02:53:48.864Z,7.4
2022-10-01T02:54:49.012Z,7.4
2022-10-01T02:55:49.163Z,7.4
2022-10-01T02:56:54.267Z,7.4
2022-10-01T02:57:56.560Z,7.4
2022-10-01T02:58:56.711Z,7.4
2022-10-01T02:59:56.860Z,7.4
2022-10-01T03:00:57.009Z,7.4
2022-10-01T03:01:57.407Z,7.4
2022-10-01T03:02:57.985Z,7.4
2022-10-01T03:03:58.256Z,7.4
2022-10-01T03:04:58.411Z,7.4
2022-10-01T03:05:58.561Z,7.4
2022-10-01T03:06:58.708Z,7.4
2022-10-01T03:07:58.855Z,7.4
2022-10-01T03:08:59.002Z,7.4
2022-10-01T03:09:59.161Z,7.4
2022-10-01T03:10:59.307Z,7.4
2022-10-01T03:11:59.497Z,7.4
2022-10-01T03:12:59.649Z,7.4
2022-10-01T03:13:59.814Z,7.4
2022-10-01T03:14:59.966Z,7.4
2022-10-01T03:16:00.331Z,7.4
2022-10-01T03:17:00.604Z,7.4
2022-10-01T03:18:00.813Z,7.4
2022-10-01T03:19:00.961Z,7.4
2022-10-01T03:20:01.123Z,7.4
2022-10-01T03:21:01.272Z,7.4
2022-10-01T03:22:01.421Z,7.4
2022-10-01T03:23:01.573Z,7.4
2022-10-01T03:24:01.721Z,7.4
2022-10-01T03:25:01.868Z,7.4
2022-10-01T03:26:02.021Z,7.4
2022-10-01T03:27:02.174Z,7.4
2022-10-01T03:28:02.468Z,7.4
2022-10-01T03:29:02.678Z,7.4
2022-10-01T03:30:02.837Z,7.4
2022-10-01T03:31:03.101Z,7.4
2022-10-01T03:32:03.330Z,7.4
2022-10-01T03:33:03.484Z,7.4
2022-10-01T03:34:03.639Z,7.4
2022-10-01T03:35:03.783Z,7.4
2022-10-01T03:36:03.929Z,7.4
2022-10-01T03:37:04.078Z,7.4
2022-10-01T03:38:04.224Z,7.4
2022-10-01T03:39:04.376Z,7.4
2022-10-01T03:40:04.524Z,7.4
2022-10-01T03:41:04.675Z,7.4
2022-10-01T03:42:04.822Z,7.4
2022-10-01T03:43:04.973Z,7.4
2022-10-01T03:44:05.132Z,7.4
2022-10-01T03:45:05.295Z,7.4
2022-10-01T03:46:05.631Z,7.4
2022-10-01T03:47:05.859Z,7.4
2022-10-01T03:48:06.011Z,7.4
2022-10-01T03:49:06.168Z,7.4
2022-10-01T03:50:06.317Z,7.4
2022-10-01T03:51:06.471Z,7.4
2022-10-01T03:52:06.648Z,7.4
2022-10-01T03:53:06.806Z,7.4
2022-10-01T03:54:06.950Z,7.4
2022-10-01T03:55:07.121Z,7.4
2022-10-01T03:56:07.274Z,7.4
2022-10-01T03:57:07.426Z,7.4
2022-10-01T03:58:07.572Z,7.4
2022-10-01T03:59:07.722Z,7.4
2022-10-01T04:00:07.874Z,7.4
2022-10-01T04:01:08.018Z,7.4
2022-10-01T04:02:08.428Z,7.4
2022-10-01T04:03:09.134Z,7.4
2022-10-01T04:04:09.404Z,7.4
2022-10-01T04:05:09.566Z,7.5
2022-10-01T04:06:09.717Z,7.5
2022-10-01T04:07:09.870Z,7.5
2022-10-01T04:08:10.018Z,7.5
2022-10-01T04:09:10.169Z,7.5
2022-10-01T04:10:10.320Z,7.5
2022-10-01T04:11:10.475Z,7.5
2022-10-01T04:12:10.621Z,7.5
2022-10-01T04:13:10.774Z,7.5
2022-10-01T04:14:10.926Z,7.5
2022-10-01T04:15:11.076Z,7.5
2022-10-01T04:16:11.498Z,7.5
2022-10-01T04:17:11.742Z,7.5
2022-10-01T04:18:11.885Z,7.5
2022-10-01T04:19:12.048Z,7.5
2022-10-01T04:20:12.273Z,7.5
2022-10-01T04:21:12.422Z,7.5
2022-10-01T04:22:12.569Z,7.5
2022-10-01T04:23:12.726Z,7.5
2022-10-01T04:24:12.879Z,7.5
2022-10-01T04:25:13.030Z,7.5
2022-10-01T04:26:13.177Z,7.5
2022-10-01T04:27:13.325Z,7.5
2022-10-01T04:28:13.698Z,7.5
2022-10-01T04:29:13.960Z,7.5
2022-10-01T04:30:14.085Z,7.5
2022-10-01T04:31:14.320Z,7.5
2022-10-01T04:32:14.663Z,7.5
2022-10-01T04:33:14.796Z,7.5
2022-10-01T04:34:14.930Z,7.5
2022-10-01T04:35:15.060Z,7.5
2022-10-01T04:36:15.186Z,7.5
2022-10-01T04:37:15.312Z,7.5
2022-10-01T04:38:15.444Z,7.5
2022-10-01T04:39:15.586Z,7.5
2022-10-01T04:40:15.717Z,7.5
2022-10-01T04:41:15.841Z,7.5
2022-10-01T04:42:15.970Z,7.5
2022-10-01T04:43:16.103Z,7.5
2022-10-01T04:44:16.244Z,7.5
2022-10-01T04:45:16.374Z,7.5
2022-10-01T04:46:16.569Z,7.5
2022-10-01T04:47:16.831Z,7.5
2022-10-01T04:48:16.958Z,7.5
2022-10-01T04:49:17.093Z,7.5
2022-10-01T04:50:17.222Z,7.5
2022-10-01T04:51:17.347Z,7.5
2022-10-01T04:52:17.471Z,7.5
2022-10-01T04:53:17.601Z,7.5
2022-10-01T04:54:17.730Z,7.5
2022-10-01T04:55:17.876Z,7.5
2022-10-01T04:56:18.001Z,7.5
2022-10-01T04:57:18.134Z,7.5
2022-10-01T04:58:18.261Z,7.5
2022-10-01T04:59:18.387Z,7.5
2022-10-01T05:00:18.509Z,7.5
2022-10-01T05:01:18.720Z,7.5
2022-10-01T05:02:19.238Z,7.5
2022-10-01T05:03:19.499Z,7.5
2022-10-01T05:04:19.648Z,7.5
2022-10-01T05:05:19.782Z,7.6
2022-10-01T05:06:19.912Z,7.6
2022-10-01T05:07:20.053Z,7.6
2022-10-01T05:08:20.190Z,7.6
2022-10-01T05:09:20.322Z,7.6
2022-10-01T05:10:20.448Z,7.6
2022-10-01T05:11:20.581Z,7.6
2022-10-01T05:12:24.772Z,7.6
2022-10-01T05:13:24.905Z,7.7
2022-10-01T05:14:25.028Z,7.7
2022-10-01T05:15:25.154Z,7.7
2022-10-01T05:16:25.420Z,7.7
2022-10-01T05:17:25.783Z,7.7
2022-10-01T05:18:25.922Z,7.7
2022-10-01T05:19:28.227Z,7.7
2022-10-01T05:20:28.351Z,7.7
2022-10-01T05:21:28.472Z,7.7
2022-10-01T05:22:28.599Z,7.7
2022-10-01T05:23:28.722Z,7.7
2022-10-01T05:24:28.854Z,7.7
2022-10-01T05:25:28.979Z,7.9
2022-10-01T05:26:29.102Z,7.9
2022-10-01T05:27:29.244Z,7.9
2022-10-01T05:28:29.732Z,7.9
2022-10-01T05:29:30.175Z,7.9
2022-10-01T05:30:30.303Z,7.9
2022-10-01T05:31:30.534Z,7.9
2022-10-01T05:32:30.753Z,7.9
2022-10-01T05:33:30.884Z,7.9
2022-10-01T05:34:31.055Z,7.9
2022-10-01T05:35:31.179Z,8
2022-10-01T05:36:31.305Z,8
2022-10-01T05:37:31.435Z,8
2022-10-01T05:38:31.561Z,8
2022-10-01T05:39:31.684Z,8
2022-10-01T05:40:31.830Z,8
2022-10-01T05:41:32.771Z,8
2022-10-01T05:42:33.574Z,8
2022-10-01T05:43:33.702Z,8
2022-10-01T05:44:33.824Z,8
2022-10-01T05:45:34.197Z,8.2
2022-10-01T05:46:34.478Z,8.2
2022-10-01T05:47:34.603Z,8.2
2022-10-01T05:48:34.730Z,8.2
2022-10-01T05:49:34.854Z,8.2
2022-10-01T05:50:34.981Z,8.2
2022-10-01T05:51:35.633Z,8.2
2022-10-01T05:52:36.474Z,8.2
2022-10-01T05:53:36.608Z,8.2
2022-10-01T05:54:36.735Z,8.2
2022-10-01T05:55:36.860Z,8.39
2022-10-01T05:56:36.996Z,8.39
2022-10-01T05:57:37.119Z,8.39
2022-10-01T05:58:37.255Z,8.39
2022-10-01T05:59:37.397Z,8.39
2022-10-01T06:00:37.525Z,8.39
2022-10-01T06:01:37.832Z,8.39
2022-10-01T06:02:38.469Z,8.39
2022-10-01T06:03:38.830Z,8.39
2022-10-01T06:04:41.440Z,8.39
2022-10-01T06:05:41.572Z,8.7
2022-10-01T06:06:41.696Z,8.7
2022-10-01T06:07:41.818Z,8.7
2022-10-01T06:08:41.940Z,8.7
2022-10-01T06:09:42.072Z,8.7
2022-10-01T06:10:42.198Z,8.7
2022-10-01T06:11:42.341Z,8.7
2022-10-01T06:12:42.469Z,8.7
2022-10-01T06:13:42.587Z,8.7
2022-10-01T06:14:42.711Z,8.7
2022-10-01T06:15:42.837Z,8.89
2022-10-01T06:16:43.247Z,8.89
2022-10-01T06:17:43.592Z,8.89
2022-10-01T06:18:43.721Z,8.89
2022-10-01T06:19:43.848Z,8.89
2022-10-01T06:20:43.967Z,8.89
2022-10-01T06:21:44.089Z,8.89
2022-10-01T06:22:44.235Z,8.89
2022-10-01T06:23:44.406Z,8.89
2022-10-01T06:24:44.544Z,9.1
2022-10-01T06:25:44.671Z,9.1
2022-10-01T06:26:44.802Z,9.1
2022-10-01T06:27:45.055Z,9.1
2022-10-01T06:28:45.264Z,9.1
2022-10-01T06:29:45.390Z,9.1
2022-10-01T06:30:45.515Z,9.1
2022-10-01T06:31:45.758Z,9.1
2022-10-01T06:32:45.957Z,9.1
2022-10-01T06:33:46.079Z,9.1
2022-10-01T06:34:46.204Z,9.3
2022-10-01T06:35:46.329Z,9.3
2022-10-01T06:36:46.449Z,9.3
2022-10-01T06:37:46.574Z,9.3
2022-10-01T06:38:46.698Z,9.3
2022-10-01T06:39:46.824Z,9.3
2022-10-01T06:40:46.951Z,9.3
2022-10-01T06:41:47.074Z,9.3
2022-10-01T06:42:47.206Z,9.3
2022-10-01T06:43:47.334Z,9.3
2022-10-01T06:44:47.472Z,9.39
2022-10-01T06:45:47.659Z,9.39
2022-10-01T06:46:47.834Z,9.39
2022-10-01T06:47:47.966Z,9.39
2022-10-01T06:48:48.097Z,9.39
2022-10-01T06:49:48.218Z,9.39
2022-10-01T06:50:48.341Z,9.39
2022-10-01T06:51:48.466Z,9.39
2022-10-01T06:52:48.596Z,9.39
2022-10-01T06:53:48.718Z,9.39
2022-10-01T06:54:48.839Z,9.6
2022-10-01T06:55:48.959Z,9.6
2022-10-01T06:56:49.084Z,9.6
2022-10-01T06:57:49.210Z,9.6
2022-10-01T06:58:49.335Z,9.6
2022-10-01T06:59:49.459Z,9.6
2022-10-01T07:00:49.811Z,9.6
2022-10-01T07:01:56.429Z,9.6
2022-10-01T07:02:56.808Z,9.7
2022-10-01T07:03:56.931Z,9.7
2022-10-01T07:04:57.058Z,9.8
2022-10-01T07:05:57.188Z,9.8
2022-10-01T07:06:57.317Z,9.8
2022-10-01T07:07:57.441Z,9.8
2022-10-01T07:08:57.566Z,9.8
2022-10-01T07:09:57.697Z,9.8
2022-10-01T07:10:57.825Z,9.8
2022-10-01T07:11:57.945Z,9.8
2022-10-01T07:12:58.068Z,9.8
2022-10-01T07:13:58.198Z,9.8
2022-10-01T07:14:58.332Z,10
2022-10-01T07:15:58.459Z,10
2022-10-01T07:16:58.597Z,10
2022-10-01T07:17:58.726Z,10
2022-10-01T07:18:58.853Z,10
2022-10-01T07:19:58.978Z,10
2022-10-01T07:20:59.100Z,10
2022-10-01T07:21:59.227Z,10
2022-10-01T07:22:59.349Z,10
2022-10-01T07:23:59.476Z,10
2022-10-01T07:24:59.601Z,10.1
2022-10-01T07:25:59.737Z,10.1
2022-10-01T07:27:07.185Z,10.1
2022-10-01T07:28:08.018Z,10.1
2022-10-01T07:29:08.249Z,10.1
2022-10-01T07:30:08.372Z,10.1
2022-10-01T07:31:08.494Z,10.1
2022-10-01T07:32:09.016Z,10.1
2022-10-01T07:33:09.224Z,10.1
2022-10-01T07:34:09.380Z,10.1
2022-10-01T07:35:09.507Z,10.2
2022-10-01T07:36:09.631Z,10.2
2022-10-01T07:37:09.757Z,10.2
2022-10-01T07:38:09.891Z,10.2
2022-10-01T07:39:10.008Z,10.2
2022-10-01T07:40:10.141Z,10.2
2022-10-01T07:41:10.266Z,10.2
2022-10-01T07:42:10.391Z,10.2
2022-10-01T07:43:10.519Z,10.2
2022-10-01T07:44:10.648Z,10.2
2022-10-01T07:45:10.775Z,10.2
2022-10-01T07:46:10.980Z,10.2
2022-10-01T07:47:11.159Z,10.2
2022-10-01T07:48:11.288Z,10.2
2022-10-01T07:49:11.420Z,10.2
2022-10-01T07:50:11.547Z,10.2
2022-10-01T07:51:11.671Z,10.2
2022-10-01T07:52:13.601Z,10.2
2022-10-01T07:53:13.742Z,10.2
2022-10-01T07:54:13.866Z,10.2
2022-10-01T07:55:13.990Z,10.2
2022-10-01T07:56:14.125Z,10.2
2022-10-01T07:57:14.258Z,10.2
2022-10-01T07:58:14.385Z,10.2
2022-10-01T07:59:14.510Z,10.2
2022-10-01T08:00:14.637Z,10.2
2022-10-01T08:01:14.839Z,10.2
2022-10-01T08:02:15.256Z,10.2
2022-10-01T08:03:15.583Z,10.2
2022-10-01T08:04:15.706Z,10.2
2022-10-01T08:05:15.827Z,10.2
2022-10-01T08:06:15.954Z,10.2
2022-10-01T08:07:16.083Z,10.2
2022-10-01T08:08:16.207Z,10.2
2022-10-01T08:09:16.332Z,10.2
2022-10-01T08:10:16.453Z,10.2
2022-10-01T08:11:16.584Z,10.2
2022-10-01T08:12:16.710Z,10.2
2022-10-01T08:13:16.834Z,10.2
2022-10-01T08:14:16.969Z,10.2
2022-10-01T08:15:17.090Z,10.2
2022-10-01T08:16:17.338Z,10.2
2022-10-01T08:17:17.546Z,10.2
2022-10-01T08:18:17.670Z,10.2
2022-10-01T08:19:17.803Z,10.2
2022-10-01T08:20:17.933Z,10.2
2022-10-01T08:21:18.055Z,10.2
2022-10-01T08:22:18.181Z,10.2
2022-10-01T08:23:18.308Z,10.2
2022-10-01T08:24:18.442Z,10.2
2022-10-01T08:25:18.569Z,10.2
2022-10-01T08:26:18.697Z,10.2
2022-10-01T08:27:18.822Z,10.2
2022-10-01T08:28:19.051Z,10.2
2022-10-01T08:29:19.241Z,10.2
2022-10-01T08:30:19.366Z,10.2
2022-10-01T08:31:19.617Z,10.2
2022-10-01T08:32:19.869Z,10.2
2022-10-01T08:33:19.995Z,10.2
2022-10-01T08:34:20.122Z,10.2
2022-10-01T08:35:20.250Z,10.1
2022-10-01T08:36:20.379Z,10.1
2022-10-01T08:37:20.505Z,10.1
2022-10-01T08:38:20.633Z,10.1
2022-10-01T08:39:20.753Z,10.1
2022-10-01T08:40:20.960Z,10.1
2022-10-01T08:41:23.501Z,10.1
2022-10-01T08:42:23.655Z,10.1
2022-10-01T08:43:23.782Z,10.1
2022-10-01T08:44:23.924Z,10.1
2022-10-01T08:45:24.053Z,10.1
2022-10-01T08:46:24.179Z,10.1
2022-10-01T08:47:24.306Z,10.1
2022-10-01T08:48:24.432Z,10.1
2022-10-01T08:49:24.609Z,10.1
2022-10-01T08:50:24.755Z,10.1
2022-10-01T08:51:24.882Z,10.1
2022-10-01T08:52:25.008Z,10.1
2022-10-01T08:53:25.137Z,10.1
2022-10-01T08:54:25.262Z,10.1
2022-10-01T08:55:25.393Z,10.2
2022-10-01T08:56:25.518Z,10.2
2022-10-01T08:57:25.644Z,10.2
2022-10-01T08:58:25.771Z,10.2
2022-10-01T08:59:27.632Z,10.2
2022-10-01T09:00:27.754Z,10.2
2022-10-01T09:01:27.971Z,10.2
2022-10-01T09:02:28.203Z,10.2
2022-10-01T09:03:28.331Z,10.2
2022-10-01T09:04:28.632Z,10.2
2022-10-01T09:05:28.860Z,10.2
2022-10-01T09:06:28.994Z,10.2
2022-10-01T09:07:29.129Z,10.2
2022-10-01T09:08:29.255Z,10.2
2022-10-01T09:09:29.386Z,10.2
2022-10-01T09:10:29.523Z,10.2
2022-10-01T09:11:29.656Z,10.2
2022-10-01T09:12:29.779Z,10.2
2022-10-01T09:13:29.914Z,10.2
2022-10-01T09:14:30.069Z,10.2
2022-10-01T09:15:30.209Z,10.4
2022-10-01T09:16:30.465Z,10.4
2022-10-01T09:17:30.743Z,10.4
2022-10-01T09:18:30.870Z,10.4
2022-10-01T09:19:30.993Z,10.4
2022-10-01T09:20:31.128Z,10.4
2022-10-01T09:21:31.527Z,10.4
2022-10-01T09:22:32.136Z,10.4
2022-10-01T09:23:32.264Z,10.4
2022-10-01T09:24:32.387Z,10.4
2022-10-01T09:25:32.512Z,10.5
2022-10-01T09:26:32.634Z,10.5
2022-10-01T09:27:32.758Z,10.5
2022-10-01T09:28:33.034Z,10.5
2022-10-01T09:29:33.214Z,10.5
2022-10-01T09:30:33.337Z,10.5
2022-10-01T09:31:34.159Z,10.5
2022-10-01T09:32:34.755Z,10.5
2022-10-01T09:33:34.880Z,10.5
2022-10-01T09:34:35.008Z,10.5
2022-10-01T09:35:35.166Z,10.5
2022-10-01T09:36:35.294Z,10.5
2022-10-01T09:37:35.422Z,10.5
2022-10-01T09:38:35.549Z,10.5
2022-10-01T09:39:35.679Z,10.5
2022-10-01T09:40:35.808Z,10.5
2022-10-01T09:41:36.697Z,10.5
2022-10-01T09:42:37.352Z,10.5
2022-10-01T09:43:37.480Z,10.5
2022-10-01T09:44:37.604Z,10.5
2022-10-01T09:45:37.926Z,10.3
2022-10-01T09:46:38.210Z,10.3
2022-10-01T09:47:38.336Z,10.3
2022-10-01T09:48:38.460Z,10.3
2022-10-01T09:49:38.585Z,10.3
2022-10-01T09:50:38.710Z,10.3
2022-10-01T09:51:41.168Z,10.3
2022-10-01T09:52:41.861Z,10.3
2022-10-01T09:53:41.988Z,10.3
2022-10-01T09:54:42.110Z,10.3
2022-10-01T09:55:42.235Z,10.1
2022-10-01T09:56:42.547Z,10.1
2022-10-01T09:57:42.776Z,10.1
2022-10-01T09:58:42.895Z,10.1
2022-10-01T09:59:43.020Z,10.1
2022-10-01T10:00:43.155Z,10.1
2022-10-01T10:01:43.489Z,10.1
2022-10-01T10:02:49.819Z,10.1
2022-10-01T10:03:50.340Z,10.1
2022-10-01T10:04:50.468Z,10.1
2022-10-01T10:05:50.606Z,10.1
2022-10-01T10:06:50.748Z,10.1
2022-10-01T10:07:50.876Z,10.1
2022-10-01T10:08:51.002Z,10.1
2022-10-01T10:09:51.127Z,10.1
2022-10-01T10:10:51.252Z,10.1
2022-10-01T10:11:51.377Z,10.1
2022-10-01T10:12:51.501Z,10.1
2022-10-01T10:13:51.624Z,10.1
2022-10-01T10:14:51.751Z,10.3
2022-10-01T10:15:51.988Z,10.3
2022-10-01T10:16:52.206Z,10.3
2022-10-01T10:17:52.347Z,10.3
2022-10-01T10:18:52.563Z,10.3
2022-10-01T10:19:52.699Z,10.3
2022-10-01T10:20:52.827Z,10.3
2022-10-01T10:21:53.029Z,10.3
2022-10-01T10:22:53.160Z,10.3
2022-10-01T10:23:53.286Z,10.3
2022-10-01T10:24:53.437Z,10.4
2022-10-01T10:25:53.561Z,10.4
2022-10-01T10:26:53.695Z,10.4
2022-10-01T10:27:53.887Z,10.4
2022-10-01T10:28:54.083Z,10.4
2022-10-01T10:29:54.217Z,10.4
2022-10-01T10:30:54.352Z,10.4
2022-10-01T10:31:54.474Z,10.4
2022-10-01T10:32:54.604Z,10.4
2022-10-01T10:33:54.742Z,10.4
2022-10-01T10:35:02.159Z,10.6
2022-10-01T10:36:03.763Z,10.7
2022-10-01T10:37:03.893Z,10.7
2022-10-01T10:38:04.020Z,10.7
2022-10-01T10:39:04.146Z,10.7
2022-10-01T10:40:04.270Z,10.7
2022-10-01T10:41:04.391Z,10.7
2022-10-01T10:42:04.517Z,10.7
2022-10-01T10:43:04.647Z,10.7
2022-10-01T10:44:04.800Z,10.7
2022-10-01T10:45:04.942Z,10.8
2022-10-01T10:46:05.142Z,10.8
2022-10-01T10:47:05.387Z,10.8
2022-10-01T10:48:05.512Z,10.8
2022-10-01T10:49:05.653Z,10.8
2022-10-01T10:50:05.781Z,10.8
2022-10-01T10:51:06.057Z,10.8
2022-10-01T10:52:06.226Z,10.8
2022-10-01T10:53:06.383Z,10.8
2022-10-01T10:54:06.513Z,10.8
2022-10-01T10:55:06.642Z,11
2022-10-01T10:56:06.768Z,11
2022-10-01T10:57:06.904Z,11
2022-10-01T10:58:07.030Z,11
2022-10-01T10:59:07.158Z,11
2022-10-01T11:00:07.281Z,11
2022-10-01T11:01:07.507Z,11
2022-10-01T11:02:08.078Z,11
2022-10-01T11:03:08.402Z,11
2022-10-01T11:04:08.525Z,11
2022-10-01T11:05:08.648Z,11.1
2022-10-01T11:06:08.778Z,11.1
2022-10-01T11:07:08.915Z,11.1
2022-10-01T11:08:09.042Z,11.1
2022-10-01T11:09:09.168Z,11.1
2022-10-01T11:10:09.300Z,11.1
2022-10-01T11:11:09.440Z,11.1
2022-10-01T11:12:09.566Z,11.1
2022-10-01T11:13:09.699Z,11.1
2022-10-01T11:14:09.835Z,11.1
2022-10-01T11:15:09.972Z,11.2
2022-10-01T11:16:10.246Z,11.2
2022-10-01T11:17:10.521Z,11.2
2022-10-01T11:18:10.677Z,11.2
2022-10-01T11:19:10.822Z,11.2
2022-10-01T11:20:10.944Z,11.2
2022-10-01T11:21:11.068Z,11.2
2022-10-01T11:22:11.193Z,11.2
2022-10-01T11:23:11.319Z,11.2
2022-10-01T11:24:11.450Z,11.2
2022-10-01T11:25:11.580Z,11.3
2022-10-01T11:26:11.704Z,11.3
2022-10-01T11:27:11.876Z,11.3
2022-10-01T11:28:12.098Z,11.3
2022-10-01T11:29:12.277Z,11.3
2022-10-01T11:30:12.515Z,11.3
2022-10-01T11:31:12.905Z,11.3
2022-10-01T11:32:13.098Z,11.3
2022-10-01T11:33:13.222Z,11.3
2022-10-01T11:34:13.347Z,11.3
2022-10-01T11:35:13.470Z,11.5
2022-10-01T11:36:13.592Z,11.5
2022-10-01T11:37:13.723Z,11.5
2022-10-01T11:38:13.848Z,11.5
2022-10-01T11:39:13.977Z,11.5
2022-10-01T11:40:14.098Z,11.5
2022-10-01T11:41:14.233Z,11.5
2022-10-01T11:42:14.357Z,11.5
2022-10-01T11:43:14.479Z,11.5
2022-10-01T11:44:14.602Z,11.5
2022-10-01T11:45:14.726Z,11.6
2022-10-01T11:46:14.968Z,11.6
2022-10-01T11:47:15.190Z,11.6
2022-10-01T11:48:15.312Z,11.6
2022-10-01T11:49:15.438Z,11.6
2022-10-01T11:50:15.571Z,11.6
2022-10-01T11:51:15.696Z,11.6
2022-10-01T11:52:15.831Z,11.6
2022-10-01T11:53:15.951Z,11.6
2022-10-01T11:54:16.074Z,11.6
2022-10-01T11:55:16.197Z,11.7
2022-10-01T11:56:16.344Z,11.7
2022-10-01T11:57:16.479Z,11.7
2022-10-01T11:58:16.610Z,11.7
2022-10-01T11:59:16.739Z,11.7
2022-10-01T12:00:16.880Z,11.7
2022-10-01T12:01:17.027Z,11.7
2022-10-01T12:02:17.223Z,11.7
2022-10-01T12:03:17.412Z,11.7
2022-10-01T12:04:17.540Z,11.7
2022-10-01T12:05:17.722Z,11.7
2022-10-01T12:06:24.564Z,11.7
2022-10-01T12:07:28.519Z,11.7
2022-10-01T12:08:28.641Z,11.7
2022-10-01T12:09:28.764Z,11.7
2022-10-01T12:10:28.889Z,11.7
2022-10-01T12:11:29.031Z,11.7
2022-10-01T12:12:29.164Z,11.7
2022-10-01T12:13:29.288Z,11.7
2022-10-01T12:14:29.411Z,11.7
2022-10-01T12:15:29.541Z,11.6
2022-10-01T12:16:29.900Z,11.6
2022-10-01T12:17:30.221Z,11.6
2022-10-01T12:18:30.350Z,11.6
2022-10-01T12:19:30.479Z,11.6
2022-10-01T12:20:30.610Z,11.6
2022-10-01T12:21:30.753Z,11.6
2022-10-01T12:22:30.899Z,11.6
2022-10-01T12:23:31.025Z,11.6
2022-10-01T12:24:31.148Z,11.6
2022-10-01T12:25:31.273Z,11.5
2022-10-01T12:26:31.529Z,11.5
2022-10-01T12:27:31.806Z,11.5
2022-10-01T12:28:32.102Z,11.5
2022-10-01T12:29:32.367Z,11.5
2022-10-01T12:30:32.490Z,11.5
2022-10-01T12:31:32.779Z,11.5
2022-10-01T12:32:32.956Z,11.5
2022-10-01T12:33:33.090Z,11.5
2022-10-01T12:34:33.219Z,11.5
2022-10-01T12:35:33.344Z,11.3
2022-10-01T12:36:34.010Z,11.3
2022-10-01T12:37:34.680Z,11.3
2022-10-01T12:38:34.811Z,11.3
2022-10-01T12:39:34.939Z,11.3
2022-10-01T12:40:35.063Z,11.3
2022-10-01T12:41:35.187Z,11.3
2022-10-01T12:42:35.315Z,11.3
2022-10-01T12:43:35.440Z,11.3
2022-10-01T12:44:35.567Z,11.3
2022-10-01T12:45:35.691Z,11
2022-10-01T12:46:36.515Z,11
2022-10-01T12:47:37.235Z,11
2022-10-01T12:48:37.360Z,11
2022-10-01T12:49:37.486Z,11
2022-10-01T12:50:37.608Z,11
2022-10-01T12:51:37.734Z,11
2022-10-01T12:52:37.865Z,11
2022-10-01T12:53:38.003Z,11
2022-10-01T12:54:38.136Z,11
2022-10-01T12:55:38.265Z,10.8
2022-10-01T12:56:38.927Z,10.8
2022-10-01T12:57:39.205Z,10.8
2022-10-01T12:58:39.337Z,10.8
2022-10-01T12:59:39.464Z,10.8
2022-10-01T13:00:39.713Z,10.8
2022-10-01T13:01:39.976Z,10.8
2022-10-01T13:02:40.186Z,10.8
2022-10-01T13:03:40.307Z,10.8
2022-10-01T13:04:40.437Z,10.8
2022-10-01T13:05:40.573Z,10.6
2022-10-01T13:06:40.712Z,10.6
2022-10-01T13:07:40.838Z,10.6
2022-10-01T13:08:40.976Z,10.6
2022-10-01T13:09:48.087Z,10.6
2022-10-01T13:10:49.384Z,10.5
2022-10-01T13:11:49.513Z,10.5
2022-10-01T13:12:49.642Z,10.5
2022-10-01T13:13:49.772Z,10.5
2022-10-01T13:14:49.899Z,10.4
2022-10-01T13:15:50.129Z,10.4
2022-10-01T13:16:50.370Z,10.4
2022-10-01T13:17:50.491Z,10.4
2022-10-01T13:18:50.620Z,10.4
2022-10-01T13:19:50.745Z,10.4
2022-10-01T13:20:50.874Z,10.4
2022-10-01T13:21:51.004Z,10.4
2022-10-01T13:22:51.129Z,10.4
2022-10-01T13:23:51.259Z,10.4
2022-10-01T13:24:51.383Z,10.4
2022-10-01T13:25:51.509Z,10.4
2022-10-01T13:26:51.630Z,10.4
2022-10-01T13:27:51.879Z,10.4
2022-10-01T13:28:52.118Z,10.4
2022-10-01T13:29:52.242Z,10.4
2022-10-01T13:30:52.440Z,10.4
2022-10-01T13:31:52.613Z,10.4
2022-10-01T13:32:52.750Z,10.4
2022-10-01T13:33:52.879Z,10.4
2022-10-01T13:34:53.004Z,10.4
2022-10-01T13:35:53.134Z,10.4
2022-10-01T13:36:53.259Z,10.4
2022-10-01T13:37:53.389Z,10.4
2022-10-01T13:38:53.511Z,10.4